sensor_id;sensor_type;location;lat;lon;timestamp;temperature;humidity
73939;DHT22;62291;47.554;8.504;2023-01-19T00:01:35;-1.40;99.90
73939;DHT22;62291;47.554;8.504;2023-01-19T00:04:01;-1.50;99.90
73939;DHT22;62291;47.554;8.504;2023-01-19T00:06:27;-1.50;99.90
73939;DHT22;62291;47.554;8.504;2023-01-19T00:08:53;-1.60;99.90
73939;DHT22;62291;47.554;8.504;2023-01-19T00:11:18;-1.60;99.90
73939;DHT22;62291;47.554;8.504;2023-01-19T00:13:44;-1.60;99.90
73939;DHT22;62291;47.554;8.504;2023-01-19T00:16:19;-1.60;99.90
73939;DHT22;62291;47.554;8.504;2023-01-19T00:18:47;-1.60;99.90
73939;DHT22;62291;47.554;8.504;2023-01-19T00:21:14;-1.70;99.90
73939;DHT22;62291;47.554;8.504;2023-01-19T00:23:40;-1.70;99.90
73939;DHT22;62291;47.554;8.504;2023-01-19T00:26:07;-1.80;99.90
73939;DHT22;62291;47.554;8.504;2023-01-19T00:28:34;-1.90;99.90
73939;DHT22;62291;47.554;8.504;2023-01-19T00:31:00;-1.90;99.90
73939;DHT22;62291;47.554;8.504;2023-01-19T00:33:26;-1.90;99.90
73939;DHT22;62291;47.554;8.504;2023-01-19T00:35:52;-2.00;99.90
73939;DHT22;62291;47.554;8.504;2023-01-19T00:38:19;-2.10;99.90
73939;DHT22;62291;47.554;8.504;2023-01-19T00:40:46;-2.10;99.90
73939;DHT22;62291;47.554;8.504;2023-01-19T00:43:12;-2.20;99.90
73939;DHT22;62291;47.554;8.504;2023-01-19T00:45:37;-2.20;99.90
73939;DHT22;62291;47.554;8.504;2023-01-19T00:48:03;-2.20;99.90
73939;DHT22;62291;47.554;8.504;2023-01-19T00:50:30;-2.30;99.90
73939;DHT22;62291;47.554;8.504;2023-01-19T00:52:57;-2.30;99.90
73939;DHT22;62291;47.554;8.504;2023-01-19T00:55:26;-2.30;99.90
73939;DHT22;62291;47.554;8.504;2023-01-19T00:57:53;-2.30;99.90
73939;DHT22;62291;47.554;8.504;2023-01-19T01:00:20;-2.30;99.90
73939;DHT22;62291;47.554;8.504;2023-01-19T01:02:47;-2.30;99.90
73939;DHT22;62291;47.554;8.504;2023-01-19T01:05:13;-2.30;99.90
73939;DHT22;62291;47.554;8.504;2023-01-19T01:07:39;-2.30;99.90
73939;DHT22;62291;47.554;8.504;2023-01-19T01:10:24;-2.30;99.90
73939;DHT22;62291;47.554;8.504;2023-01-19T01:12:50;-2.30;99.90
73939;DHT22;62291;47.554;8.504;2023-01-19T01:15:17;-2.40;99.90
73939;DHT22;62291;47.554;8.504;2023-01-19T01:17:43;-2.30;99.90
73939;DHT22;62291;47.554;8.504;2023-01-19T01:20:13;-2.30;99.90
73939;DHT22;62291;47.554;8.504;2023-01-19T01:22:41;-2.20;99.90
73939;DHT22;62291;47.554;8.504;2023-01-19T01:25:11;-2.20;99.90
73939;DHT22;62291;47.554;8.504;2023-01-19T01:27:37;-2.20;99.90
73939;DHT22;62291;47.554;8.504;2023-01-19T01:30:03;-2.10;99.90
73939;DHT22;62291;47.554;8.504;2023-01-19T01:32:29;-2.10;99.90
73939;DHT22;62291;47.554;8.504;2023-01-19T01:34:55;-2.00;99.90
73939;DHT22;62291;47.554;8.504;2023-01-19T01:37:21;-2.00;99.90
73939;DHT22;62291;47.554;8.504;2023-01-19T01:39:46;-1.90;99.90
73939;DHT22;62291;47.554;8.504;2023-01-19T01:42:18;-1.80;99.90
73939;DHT22;62291;47.554;8.504;2023-01-19T01:44:51;-1.80;99.90
73939;DHT22;62291;47.554;8.504;2023-01-19T01:47:44;-1.80;99.90
73939;DHT22;62291;47.554;8.504;2023-01-19T01:50:20;-1.80;99.90
73939;DHT22;62291;47.554;8.504;2023-01-19T01:53:08;-1.80;99.90
73939;DHT22;62291;47.554;8.504;2023-01-19T01:55:40;-1.80;99.90
73939;DHT22;62291;47.554;8.504;2023-01-19T01:58:08;-1.90;99.90
73939;DHT22;62291;47.554;8.504;2023-01-19T02:00:35;-2.00;99.90
73939;DHT22;62291;47.554;8.504;2023-01-19T02:03:22;-2.00;99.90
73939;DHT22;62291;47.554;8.504;2023-01-19T02:05:48;-2.00;99.90
73939;DHT22;62291;47.554;8.504;2023-01-19T02:11:08;-2.10;99.90
73939;DHT22;62291;47.554;8.504;2023-01-19T02:13:52;-2.20;99.90
73939;DHT22;62291;47.554;8.504;2023-01-19T02:16:18;-2.20;99.90
73939;DHT22;62291;47.554;8.504;2023-01-19T02:18:44;-2.30;99.90
73939;DHT22;62291;47.554;8.504;2023-01-19T02:21:23;-2.30;99.90
73939;DHT22;62291;47.554;8.504;2023-01-19T02:23:57;-2.40;99.90
73939;DHT22;62291;47.554;8.504;2023-01-19T02:26:39;-2.40;99.90
73939;DHT22;62291;47.554;8.504;2023-01-19T02:29:12;-2.40;99.90
73939;DHT22;62291;47.554;8.504;2023-01-19T02:31:39;-2.40;99.90
73939;DHT22;62291;47.554;8.504;2023-01-19T02:34:08;-2.40;99.90
73939;DHT22;62291;47.554;8.504;2023-01-19T02:36:58;-2.40;99.90
73939;DHT22;62291;47.554;8.504;2023-01-19T02:39:35;-2.50;99.90
73939;DHT22;62291;47.554;8.504;2023-01-19T02:42:07;-2.50;99.90
73939;DHT22;62291;47.554;8.504;2023-01-19T02:44:34;-2.60;99.90
73939;DHT22;62291;47.554;8.504;2023-01-19T02:47:01;-2.60;99.90
73939;DHT22;62291;47.554;8.504;2023-01-19T02:49:28;-2.70;99.90
73939;DHT22;62291;47.554;8.504;2023-01-19T02:51:55;-2.80;99.90
73939;DHT22;62291;47.554;8.504;2023-01-19T02:54:31;-2.80;99.90
73939;DHT22;62291;47.554;8.504;2023-01-19T03:08:22;-2.80;99.90
73939;DHT22;62291;47.554;8.504;2023-01-19T03:10:58;-2.90;99.90
73939;DHT22;62291;47.554;8.504;2023-01-19T03:16:35;-2.90;99.90
73939;DHT22;62291;47.554;8.504;2023-01-19T03:19:21;-2.90;99.90
73939;DHT22;62291;47.554;8.504;2023-01-19T03:21:57;-2.80;99.90
73939;DHT22;62291;47.554;8.504;2023-01-19T03:24:24;-2.80;99.90
73939;DHT22;62291;47.554;8.504;2023-01-19T03:26:56;-2.80;99.90
73939;DHT22;62291;47.554;8.504;2023-01-19T03:29:27;-2.70;99.90
73939;DHT22;62291;47.554;8.504;2023-01-19T03:31:56;-2.80;99.90
73939;DHT22;62291;47.554;8.504;2023-01-19T03:34:26;-2.80;99.90
73939;DHT22;62291;47.554;8.504;2023-01-19T03:36:55;-2.80;99.90
73939;DHT22;62291;47.554;8.504;2023-01-19T03:39:23;-2.90;99.90
73939;DHT22;62291;47.554;8.504;2023-01-19T03:42:12;-2.80;99.90
73939;DHT22;62291;47.554;8.504;2023-01-19T03:44:39;-2.70;99.90
73939;DHT22;62291;47.554;8.504;2023-01-19T03:47:06;-2.80;99.90
73939;DHT22;62291;47.554;8.504;2023-01-19T03:49:34;-2.70;99.90
73939;DHT22;62291;47.554;8.504;2023-01-19T03:52:00;-2.60;99.90
73939;DHT22;62291;47.554;8.504;2023-01-19T03:54:26;-2.60;99.90
73939;DHT22;62291;47.554;8.504;2023-01-19T03:56:56;-2.60;99.90
73939;DHT22;62291;47.554;8.504;2023-01-19T03:59:22;-2.60;99.90
73939;DHT22;62291;47.554;8.504;2023-01-19T04:01:48;-2.60;99.90
73939;DHT22;62291;47.554;8.504;2023-01-19T04:04:14;-2.60;99.90
73939;DHT22;62291;47.554;8.504;2023-01-19T04:06:40;-2.60;99.90
73939;DHT22;62291;47.554;8.504;2023-01-19T04:09:06;-2.50;99.90
73939;DHT22;62291;47.554;8.504;2023-01-19T04:11:32;-2.50;99.90
73939;DHT22;62291;47.554;8.504;2023-01-19T04:13:58;-2.40;99.90
73939;DHT22;62291;47.554;8.504;2023-01-19T04:16:24;-2.40;99.90
73939;DHT22;62291;47.554;8.504;2023-01-19T04:18:49;-2.40;99.90
73939;DHT22;62291;47.554;8.504;2023-01-19T04:21:17;-2.40;99.90
73939;DHT22;62291;47.554;8.504;2023-01-19T04:23:45;-2.40;99.90
73939;DHT22;62291;47.554;8.504;2023-01-19T04:26:10;-2.40;99.90
73939;DHT22;62291;47.554;8.504;2023-01-19T04:28:36;-2.40;99.90
73939;DHT22;62291;47.554;8.504;2023-01-19T04:31:03;-2.40;99.90
73939;DHT22;62291;47.554;8.504;2023-01-19T04:33:29;-2.40;99.90
73939;DHT22;62291;47.554;8.504;2023-01-19T04:35:55;-2.30;99.90
73939;DHT22;62291;47.554;8.504;2023-01-19T04:38:22;-2.30;99.90
73939;DHT22;62291;47.554;8.504;2023-01-19T04:40:49;-2.30;99.90
73939;DHT22;62291;47.554;8.504;2023-01-19T04:43:15;-2.30;99.90
73939;DHT22;62291;47.554;8.504;2023-01-19T04:45:41;-2.30;99.90
73939;DHT22;62291;47.554;8.504;2023-01-19T04:48:09;-2.30;99.90
73939;DHT22;62291;47.554;8.504;2023-01-19T04:50:36;-2.30;99.90
73939;DHT22;62291;47.554;8.504;2023-01-19T04:53:01;-2.40;99.90
73939;DHT22;62291;47.554;8.504;2023-01-19T04:55:27;-2.50;99.90
73939;DHT22;62291;47.554;8.504;2023-01-19T04:57:53;-2.50;99.90
73939;DHT22;62291;47.554;8.504;2023-01-19T05:00:19;-2.50;99.90
73939;DHT22;62291;47.554;8.504;2023-01-19T05:02:45;-2.60;99.90
73939;DHT22;62291;47.554;8.504;2023-01-19T05:05:11;-2.70;99.90
73939;DHT22;62291;47.554;8.504;2023-01-19T05:07:37;-2.80;99.90
73939;DHT22;62291;47.554;8.504;2023-01-19T05:10:04;-2.80;99.90
73939;DHT22;62291;47.554;8.504;2023-01-19T05:12:31;-2.80;99.90
73939;DHT22;62291;47.554;8.504;2023-01-19T05:14:56;-2.80;99.90
73939;DHT22;62291;47.554;8.504;2023-01-19T05:17:22;-2.80;99.90
73939;DHT22;62291;47.554;8.504;2023-01-19T05:19:48;-2.70;99.90
73939;DHT22;62291;47.554;8.504;2023-01-19T05:22:14;-2.50;99.90
73939;DHT22;62291;47.554;8.504;2023-01-19T05:24:40;-2.40;99.90
73939;DHT22;62291;47.554;8.504;2023-01-19T05:27:05;-2.30;99.90
73939;DHT22;62291;47.554;8.504;2023-01-19T05:29:31;-2.20;99.90
73939;DHT22;62291;47.554;8.504;2023-01-19T05:31:57;-2.10;99.90
73939;DHT22;62291;47.554;8.504;2023-01-19T05:34:23;-2.00;99.90
73939;DHT22;62291;47.554;8.504;2023-01-19T05:36:49;-1.90;99.90
73939;DHT22;62291;47.554;8.504;2023-01-19T05:39:15;-1.90;99.90
73939;DHT22;62291;47.554;8.504;2023-01-19T05:41:40;-1.90;99.90
73939;DHT22;62291;47.554;8.504;2023-01-19T05:44:08;-1.90;99.90
73939;DHT22;62291;47.554;8.504;2023-01-19T05:46:34;-1.90;99.90
73939;DHT22;62291;47.554;8.504;2023-01-19T05:48:59;-1.90;99.90
73939;DHT22;62291;47.554;8.504;2023-01-19T05:51:29;-1.90;99.90
73939;DHT22;62291;47.554;8.504;2023-01-19T05:54:00;-1.90;99.90
73939;DHT22;62291;47.554;8.504;2023-01-19T05:56:26;-2.00;99.90
73939;DHT22;62291;47.554;8.504;2023-01-19T05:58:52;-2.00;99.90
73939;DHT22;62291;47.554;8.504;2023-01-19T06:01:17;-2.00;99.90
73939;DHT22;62291;47.554;8.504;2023-01-19T06:03:43;-2.00;99.90
73939;DHT22;62291;47.554;8.504;2023-01-19T06:06:11;-2.00;99.90
73939;DHT22;62291;47.554;8.504;2023-01-19T06:08:40;-2.10;99.90
73939;DHT22;62291;47.554;8.504;2023-01-19T06:11:06;-2.10;99.90
73939;DHT22;62291;47.554;8.504;2023-01-19T06:13:32;-2.20;99.90
73939;DHT22;62291;47.554;8.504;2023-01-19T06:15:59;-2.20;99.90
73939;DHT22;62291;47.554;8.504;2023-01-19T06:18:25;-2.20;99.90
73939;DHT22;62291;47.554;8.504;2023-01-19T06:20:51;-2.30;99.90
73939;DHT22;62291;47.554;8.504;2023-01-19T06:23:23;-2.30;99.90
73939;DHT22;62291;47.554;8.504;2023-01-19T06:25:50;-2.40;99.90
73939;DHT22;62291;47.554;8.504;2023-01-19T06:28:16;-2.40;99.90
73939;DHT22;62291;47.554;8.504;2023-01-19T06:30:41;-2.40;99.90
73939;DHT22;62291;47.554;8.504;2023-01-19T06:33:07;-2.50;99.90
73939;DHT22;62291;47.554;8.504;2023-01-19T06:35:33;-2.50;99.90
73939;DHT22;62291;47.554;8.504;2023-01-19T06:38:00;-2.50;99.90
73939;DHT22;62291;47.554;8.504;2023-01-19T06:40:26;-2.70;99.90
73939;DHT22;62291;47.554;8.504;2023-01-19T06:42:51;-2.80;99.90
73939;DHT22;62291;47.554;8.504;2023-01-19T06:45:17;-2.80;99.90
73939;DHT22;62291;47.554;8.504;2023-01-19T06:47:46;-2.90;99.90
73939;DHT22;62291;47.554;8.504;2023-01-19T06:50:12;-3.00;99.90
73939;DHT22;62291;47.554;8.504;2023-01-19T06:52:38;-3.10;99.90
73939;DHT22;62291;47.554;8.504;2023-01-19T06:55:10;-3.10;99.90
73939;DHT22;62291;47.554;8.504;2023-01-19T06:57:39;-3.20;99.90
73939;DHT22;62291;47.554;8.504;2023-01-19T07:00:05;-3.20;99.90
73939;DHT22;62291;47.554;8.504;2023-01-19T07:02:39;-3.20;99.90
73939;DHT22;62291;47.554;8.504;2023-01-19T07:05:05;-3.40;99.90
73939;DHT22;62291;47.554;8.504;2023-01-19T07:07:33;-3.40;99.90
73939;DHT22;62291;47.554;8.504;2023-01-19T07:09:59;-3.40;99.90
73939;DHT22;62291;47.554;8.504;2023-01-19T07:12:24;-3.40;99.90
73939;DHT22;62291;47.554;8.504;2023-01-19T07:14:50;-3.50;99.90
73939;DHT22;62291;47.554;8.504;2023-01-19T07:17:17;-3.50;99.90
73939;DHT22;62291;47.554;8.504;2023-01-19T07:19:45;-3.50;99.90
73939;DHT22;62291;47.554;8.504;2023-01-19T07:22:14;-3.50;99.90
73939;DHT22;62291;47.554;8.504;2023-01-19T07:24:39;-3.50;99.90
73939;DHT22;62291;47.554;8.504;2023-01-19T07:27:05;-3.40;99.90
73939;DHT22;62291;47.554;8.504;2023-01-19T07:29:34;-3.50;99.90
73939;DHT22;62291;47.554;8.504;2023-01-19T07:32:00;-3.50;99.90
73939;DHT22;62291;47.554;8.504;2023-01-19T07:34:26;-3.50;99.90
73939;DHT22;62291;47.554;8.504;2023-01-19T07:36:51;-3.50;99.90
73939;DHT22;62291;47.554;8.504;2023-01-19T07:39:17;-3.40;99.90
73939;DHT22;62291;47.554;8.504;2023-01-19T07:41:43;-3.40;99.90
73939;DHT22;62291;47.554;8.504;2023-01-19T07:44:09;-3.50;99.90
73939;DHT22;62291;47.554;8.504;2023-01-19T07:46:34;-3.50;99.90
73939;DHT22;62291;47.554;8.504;2023-01-19T07:49:00;-3.50;99.90
73939;DHT22;62291;47.554;8.504;2023-01-19T07:51:35;-3.40;99.90
73939;DHT22;62291;47.554;8.504;2023-01-19T07:54:00;-3.30;99.90
73939;DHT22;62291;47.554;8.504;2023-01-19T07:56:28;-3.20;99.90
73939;DHT22;62291;47.554;8.504;2023-01-19T07:58:55;-3.10;99.90
73939;DHT22;62291;47.554;8.504;2023-01-19T08:01:21;-3.10;99.90
73939;DHT22;62291;47.554;8.504;2023-01-19T08:03:48;-3.00;99.90
73939;DHT22;62291;47.554;8.504;2023-01-19T08:06:28;-2.90;99.90
73939;DHT22;62291;47.554;8.504;2023-01-19T08:08:56;-2.80;99.90
73939;DHT22;62291;47.554;8.504;2023-01-19T08:11:22;-2.60;99.90
73939;DHT22;62291;47.554;8.504;2023-01-19T08:13:48;-2.50;99.90
73939;DHT22;62291;47.554;8.504;2023-01-19T08:16:14;-2.50;99.90
73939;DHT22;62291;47.554;8.504;2023-01-19T08:18:40;-2.40;99.90
73939;DHT22;62291;47.554;8.504;2023-01-19T08:21:07;-2.40;99.90
73939;DHT22;62291;47.554;8.504;2023-01-19T08:23:32;-2.30;99.90
73939;DHT22;62291;47.554;8.504;2023-01-19T08:25:58;-2.20;99.90
73939;DHT22;62291;47.554;8.504;2023-01-19T08:28:24;-2.10;99.90
73939;DHT22;62291;47.554;8.504;2023-01-19T08:30:50;-2.10;99.90
73939;DHT22;62291;47.554;8.504;2023-01-19T08:33:22;-2.00;99.90
73939;DHT22;62291;47.554;8.504;2023-01-19T08:35:50;-2.00;99.90
73939;DHT22;62291;47.554;8.504;2023-01-19T08:38:17;-1.90;99.90
73939;DHT22;62291;47.554;8.504;2023-01-19T08:40:42;-1.80;99.90
73939;DHT22;62291;47.554;8.504;2023-01-19T08:43:10;-1.60;99.90
73939;DHT22;62291;47.554;8.504;2023-01-19T08:45:38;-1.50;99.90
73939;DHT22;62291;47.554;8.504;2023-01-19T08:48:11;-1.50;99.90
73939;DHT22;62291;47.554;8.504;2023-01-19T08:50:38;-1.50;99.90
73939;DHT22;62291;47.554;8.504;2023-01-19T08:53:04;-1.30;99.90
73939;DHT22;62291;47.554;8.504;2023-01-19T08:55:33;-0.70;99.90
73939;DHT22;62291;47.554;8.504;2023-01-19T08:58:00;-0.30;99.90
73939;DHT22;62291;47.554;8.504;2023-01-19T09:00:26;-0.30;99.90
73939;DHT22;62291;47.554;8.504;2023-01-19T09:02:52;-0.30;99.90
73939;DHT22;62291;47.554;8.504;2023-01-19T09:05:18;-0.40;99.90
73939;DHT22;62291;47.554;8.504;2023-01-19T09:07:45;-0.20;99.90
73939;DHT22;62291;47.554;8.504;2023-01-19T09:10:13;0.20;99.90
73939;DHT22;62291;47.554;8.504;2023-01-19T09:12:39;0.60;99.90
73939;DHT22;62291;47.554;8.504;2023-01-19T09:15:05;0.90;99.90
73939;DHT22;62291;47.554;8.504;2023-01-19T09:17:31;1.40;99.90
73939;DHT22;62291;47.554;8.504;2023-01-19T09:19:57;1.80;99.90
73939;DHT22;62291;47.554;8.504;2023-01-19T09:22:23;2.20;99.90
73939;DHT22;62291;47.554;8.504;2023-01-19T09:24:49;2.60;99.90
73939;DHT22;62291;47.554;8.504;2023-01-19T09:27:15;2.90;99.90
73939;DHT22;62291;47.554;8.504;2023-01-19T09:29:41;2.60;99.90
73939;DHT22;62291;47.554;8.504;2023-01-19T09:32:06;2.60;99.90
73939;DHT22;62291;47.554;8.504;2023-01-19T09:34:33;2.90;99.90
73939;DHT22;62291;47.554;8.504;2023-01-19T09:36:59;3.00;99.90
73939;DHT22;62291;47.554;8.504;2023-01-19T09:39:24;3.50;99.90
73939;DHT22;62291;47.554;8.504;2023-01-19T09:42:22;3.80;99.90
73939;DHT22;62291;47.554;8.504;2023-01-19T09:44:51;4.20;99.90
73939;DHT22;62291;47.554;8.504;2023-01-19T09:47:22;5.00;99.90
73939;DHT22;62291;47.554;8.504;2023-01-19T09:50:16;5.70;99.90
73939;DHT22;62291;47.554;8.504;2023-01-19T09:52:46;6.10;99.90
73939;DHT22;62291;47.554;8.504;2023-01-19T09:55:24;6.60;99.90
73939;DHT22;62291;47.554;8.504;2023-01-19T09:57:51;7.20;99.90
73939;DHT22;62291;47.554;8.504;2023-01-19T10:00:18;7.30;99.90
73939;DHT22;62291;47.554;8.504;2023-01-19T10:02:47;7.20;99.90
73939;DHT22;62291;47.554;8.504;2023-01-19T10:10:23;7.80;99.90
73939;DHT22;62291;47.554;8.504;2023-01-19T10:18:16;8.40;99.90
73939;DHT22;62291;47.554;8.504;2023-01-19T10:20:49;7.80;99.80
73939;DHT22;62291;47.554;8.504;2023-01-19T10:23:35;7.90;99.80
73939;DHT22;62291;47.554;8.504;2023-01-19T10:31:38;7.80;99.70
73939;DHT22;62291;47.554;8.504;2023-01-19T10:34:05;7.40;99.70
73939;DHT22;62291;47.554;8.504;2023-01-19T10:36:36;7.30;99.40
73939;DHT22;62291;47.554;8.504;2023-01-19T10:39:06;7.50;99.90
73939;DHT22;62291;47.554;8.504;2023-01-19T10:41:44;7.30;99.90
73939;DHT22;62291;47.554;8.504;2023-01-19T10:44:12;6.70;99.90
73939;DHT22;62291;47.554;8.504;2023-01-19T10:46:47;7.00;99.90
73939;DHT22;62291;47.554;8.504;2023-01-19T10:49:24;6.80;99.90
73939;DHT22;62291;47.554;8.504;2023-01-19T10:51:50;6.70;99.30
73939;DHT22;62291;47.554;8.504;2023-01-19T10:54:19;6.60;99.90
73939;DHT22;62291;47.554;8.504;2023-01-19T10:56:50;6.90;99.60
73939;DHT22;62291;47.554;8.504;2023-01-19T10:59:45;6.90;99.10
73939;DHT22;62291;47.554;8.504;2023-01-19T11:02:17;6.80;99.70
73939;DHT22;62291;47.554;8.504;2023-01-19T11:04:43;6.70;99.80
73939;DHT22;62291;47.554;8.504;2023-01-19T11:09:42;6.60;99.80
73939;DHT22;62291;47.554;8.504;2023-01-19T11:12:15;6.60;99.90
73939;DHT22;62291;47.554;8.504;2023-01-19T11:14:41;6.80;99.50
73939;DHT22;62291;47.554;8.504;2023-01-19T11:17:19;6.70;99.30
73939;DHT22;62291;47.554;8.504;2023-01-19T11:19:57;6.90;99.00
73939;DHT22;62291;47.554;8.504;2023-01-19T11:22:27;6.90;98.40
73939;DHT22;62291;47.554;8.504;2023-01-19T11:24:57;7.00;99.60
73939;DHT22;62291;47.554;8.504;2023-01-19T11:27:23;7.00;98.90
73939;DHT22;62291;47.554;8.504;2023-01-19T11:29:56;6.60;98.00
73939;DHT22;62291;47.554;8.504;2023-01-19T11:32:26;6.70;99.20
73939;DHT22;62291;47.554;8.504;2023-01-19T11:34:52;6.80;99.30
73939;DHT22;62291;47.554;8.504;2023-01-19T11:39:47;6.40;99.20
73939;DHT22;62291;47.554;8.504;2023-01-19T11:42:14;6.20;99.90
73939;DHT22;62291;47.554;8.504;2023-01-19T11:45:00;6.30;99.90
73939;DHT22;62291;47.554;8.504;2023-01-19T11:47:53;6.70;99.90
73939;DHT22;62291;47.554;8.504;2023-01-19T11:50:28;6.40;99.20
73939;DHT22;62291;47.554;8.504;2023-01-19T11:55:56;6.30;99.90
73939;DHT22;62291;47.554;8.504;2023-01-19T11:58:23;6.50;99.70
73939;DHT22;62291;47.554;8.504;2023-01-19T12:00:53;6.30;99.80
73939;DHT22;62291;47.554;8.504;2023-01-19T12:03:42;6.30;99.20
73939;DHT22;62291;47.554;8.504;2023-01-19T12:06:17;6.10;98.90
73939;DHT22;62291;47.554;8.504;2023-01-19T12:11:29;5.70;99.70
73939;DHT22;62291;47.554;8.504;2023-01-19T12:13:56;5.60;99.60
73939;DHT22;62291;47.554;8.504;2023-01-19T12:16:25;5.50;99.90
73939;DHT22;62291;47.554;8.504;2023-01-19T12:18:59;5.40;99.90
73939;DHT22;62291;47.554;8.504;2023-01-19T12:21:26;5.20;99.90
73939;DHT22;62291;47.554;8.504;2023-01-19T12:24:26;5.20;99.90
73939;DHT22;62291;47.554;8.504;2023-01-19T12:26:56;5.20;99.90
73939;DHT22;62291;47.554;8.504;2023-01-19T12:29:25;5.30;99.90
73939;DHT22;62291;47.554;8.504;2023-01-19T12:34:50;5.60;99.70
73939;DHT22;62291;47.554;8.504;2023-01-19T12:37:36;5.40;99.90
73939;DHT22;62291;47.554;8.504;2023-01-19T12:43:03;5.10;99.90
73939;DHT22;62291;47.554;8.504;2023-01-19T12:45:34;5.10;99.90
73939;DHT22;62291;47.554;8.504;2023-01-19T12:48:01;5.00;99.90
73939;DHT22;62291;47.554;8.504;2023-01-19T12:50:33;4.60;99.90
73939;DHT22;62291;47.554;8.504;2023-01-19T12:53:02;4.50;99.90
73939;DHT22;62291;47.554;8.504;2023-01-19T12:55:35;4.20;99.90
73939;DHT22;62291;47.554;8.504;2023-01-19T13:00:38;3.70;99.90
73939;DHT22;62291;47.554;8.504;2023-01-19T13:13:29;3.80;99.90
73939;DHT22;62291;47.554;8.504;2023-01-19T13:16:22;3.80;99.90
73939;DHT22;62291;47.554;8.504;2023-01-19T13:21:33;3.90;99.90
73939;DHT22;62291;47.554;8.504;2023-01-19T13:24:05;3.80;99.90
73939;DHT22;62291;47.554;8.504;2023-01-19T13:26:54;3.70;99.90
73939;DHT22;62291;47.554;8.504;2023-01-19T13:29:32;3.80;99.90
73939;DHT22;62291;47.554;8.504;2023-01-19T13:32:05;3.80;99.90
73939;DHT22;62291;47.554;8.504;2023-01-19T13:34:40;3.70;99.90
73939;DHT22;62291;47.554;8.504;2023-01-19T13:37:22;3.50;99.90
73939;DHT22;62291;47.554;8.504;2023-01-19T13:39:51;3.60;99.90
73939;DHT22;62291;47.554;8.504;2023-01-19T13:44:52;3.60;99.90
73939;DHT22;62291;47.554;8.504;2023-01-19T13:47:24;3.70;99.90
73939;DHT22;62291;47.554;8.504;2023-01-19T13:49:55;3.70;99.90
73939;DHT22;62291;47.554;8.504;2023-01-19T13:52:27;3.70;99.90
73939;DHT22;62291;47.554;8.504;2023-01-19T13:54:55;3.70;99.90
73939;DHT22;62291;47.554;8.504;2023-01-19T13:57:38;3.60;99.90
73939;DHT22;62291;47.554;8.504;2023-01-19T14:05:30;3.20;99.90
73939;DHT22;62291;47.554;8.504;2023-01-19T14:08:00;3.10;99.90
73939;DHT22;62291;47.554;8.504;2023-01-19T14:10:26;3.10;99.90
73939;DHT22;62291;47.554;8.504;2023-01-19T14:15:45;2.90;99.90
73939;DHT22;62291;47.554;8.504;2023-01-19T14:21:01;2.80;99.90
73939;DHT22;62291;47.554;8.504;2023-01-19T14:23:53;2.70;99.90
73939;DHT22;62291;47.554;8.504;2023-01-19T14:26:42;2.50;99.90
73939;DHT22;62291;47.554;8.504;2023-01-19T14:29:29;2.50;99.90
73939;DHT22;62291;47.554;8.504;2023-01-19T14:34:35;2.40;99.90
73939;DHT22;62291;47.554;8.504;2023-01-19T14:37:03;2.40;99.90
73939;DHT22;62291;47.554;8.504;2023-01-19T14:39:32;2.30;99.90
73939;DHT22;62291;47.554;8.504;2023-01-19T14:42:00;2.30;99.90
73939;DHT22;62291;47.554;8.504;2023-01-19T14:44:30;2.10;99.90
73939;DHT22;62291;47.554;8.504;2023-01-19T14:46:57;2.10;99.90
73939;DHT22;62291;47.554;8.504;2023-01-19T14:49:37;2.10;99.90
73939;DHT22;62291;47.554;8.504;2023-01-19T14:52:26;2.10;99.90
73939;DHT22;62291;47.554;8.504;2023-01-19T14:54:53;1.90;99.90
73939;DHT22;62291;47.554;8.504;2023-01-19T14:57:19;1.90;99.90
73939;DHT22;62291;47.554;8.504;2023-01-19T14:59:45;1.90;99.90
73939;DHT22;62291;47.554;8.504;2023-01-19T15:02:14;1.80;99.90
73939;DHT22;62291;47.554;8.504;2023-01-19T15:04:39;1.80;99.90
73939;DHT22;62291;47.554;8.504;2023-01-19T15:07:06;1.70;99.90
73939;DHT22;62291;47.554;8.504;2023-01-19T15:09:36;1.70;99.90
73939;DHT22;62291;47.554;8.504;2023-01-19T15:12:02;1.60;99.90
73939;DHT22;62291;47.554;8.504;2023-01-19T15:14:28;1.60;99.90
73939;DHT22;62291;47.554;8.504;2023-01-19T15:16:53;1.50;99.90
73939;DHT22;62291;47.554;8.504;2023-01-19T15:19:19;1.50;99.90
73939;DHT22;62291;47.554;8.504;2023-01-19T15:21:45;1.50;99.90
73939;DHT22;62291;47.554;8.504;2023-01-19T15:24:12;1.40;99.90
73939;DHT22;62291;47.554;8.504;2023-01-19T15:26:40;1.30;99.90
73939;DHT22;62291;47.554;8.504;2023-01-19T15:29:22;1.20;99.90
73939;DHT22;62291;47.554;8.504;2023-01-19T15:31:48;1.10;99.90
73939;DHT22;62291;47.554;8.504;2023-01-19T15:34:13;1.10;99.90
73939;DHT22;62291;47.554;8.504;2023-01-19T15:36:40;1.00;99.90
73939;DHT22;62291;47.554;8.504;2023-01-19T15:39:06;0.90;99.90
73939;DHT22;62291;47.554;8.504;2023-01-19T15:41:32;0.80;99.90
73939;DHT22;62291;47.554;8.504;2023-01-19T15:43:58;0.70;99.90
73939;DHT22;62291;47.554;8.504;2023-01-19T15:46:24;0.60;99.90
73939;DHT22;62291;47.554;8.504;2023-01-19T15:48:50;0.60;99.90
73939;DHT22;62291;47.554;8.504;2023-01-19T15:51:18;0.60;99.90
73939;DHT22;62291;47.554;8.504;2023-01-19T15:53:45;0.40;99.90
73939;DHT22;62291;47.554;8.504;2023-01-19T15:58:40;0.30;99.90
73939;DHT22;62291;47.554;8.504;2023-01-19T16:01:14;0.20;99.90
73939;DHT22;62291;47.554;8.504;2023-01-19T16:03:40;0.10;99.90
73939;DHT22;62291;47.554;8.504;2023-01-19T16:06:07;0.00;99.90
73939;DHT22;62291;47.554;8.504;2023-01-19T16:08:34;0.00;99.90
73939;DHT22;62291;47.554;8.504;2023-01-19T16:11:07;-0.10;99.90
73939;DHT22;62291;47.554;8.504;2023-01-19T16:13:33;-0.20;99.90
73939;DHT22;62291;47.554;8.504;2023-01-19T16:16:03;-0.20;99.90
73939;DHT22;62291;47.554;8.504;2023-01-19T16:18:29;-0.20;99.90
73939;DHT22;62291;47.554;8.504;2023-01-19T16:20:55;-0.30;99.90
73939;DHT22;62291;47.554;8.504;2023-01-19T16:23:21;-0.30;99.90
73939;DHT22;62291;47.554;8.504;2023-01-19T16:26:04;-0.40;99.90
73939;DHT22;62291;47.554;8.504;2023-01-19T16:28:35;-0.40;99.90
73939;DHT22;62291;47.554;8.504;2023-01-19T16:31:02;-0.40;99.90
73939;DHT22;62291;47.554;8.504;2023-01-19T16:33:28;-0.40;99.90
73939;DHT22;62291;47.554;8.504;2023-01-19T16:35:54;-0.40;99.90
73939;DHT22;62291;47.554;8.504;2023-01-19T16:38:21;-0.40;99.90
73939;DHT22;62291;47.554;8.504;2023-01-19T16:40:47;-0.40;99.90
73939;DHT22;62291;47.554;8.504;2023-01-19T16:43:13;-0.40;99.90
73939;DHT22;62291;47.554;8.504;2023-01-19T16:46:00;-0.40;99.90
73939;DHT22;62291;47.554;8.504;2023-01-19T16:48:27;-0.40;99.90
73939;DHT22;62291;47.554;8.504;2023-01-19T16:51:05;-0.50;99.90
73939;DHT22;62291;47.554;8.504;2023-01-19T16:53:32;-0.50;99.90
73939;DHT22;62291;47.554;8.504;2023-01-19T16:56:09;-0.50;99.90
73939;DHT22;62291;47.554;8.504;2023-01-19T16:58:35;-0.60;99.90
73939;DHT22;62291;47.554;8.504;2023-01-19T17:01:23;-0.70;99.90
73939;DHT22;62291;47.554;8.504;2023-01-19T17:03:49;-0.80;99.90
73939;DHT22;62291;47.554;8.504;2023-01-19T17:06:17;-0.90;99.90
73939;DHT22;62291;47.554;8.504;2023-01-19T17:08:45;-0.90;99.90
73939;DHT22;62291;47.554;8.504;2023-01-19T17:11:13;-1.00;99.90
73939;DHT22;62291;47.554;8.504;2023-01-19T17:13:44;-1.10;99.90
73939;DHT22;62291;47.554;8.504;2023-01-19T17:16:09;-1.10;99.90